sensor_id;sensor_type;location;lat;lon;timestamp;temperature;humidity
73780;SHT30;62093;37.614;15.072;2024-03-06T00:02:07;15.58;62.60
73780;SHT30;62093;37.614;15.072;2024-03-06T00:04:33;15.58;62.60
73780;SHT30;62093;37.614;15.072;2024-03-06T00:07:00;15.61;62.62
73780;SHT30;62093;37.614;15.072;2024-03-06T00:09:26;15.61;62.59
73780;SHT30;62093;37.614;15.072;2024-03-06T00:11:57;15.61;62.61
73780;SHT30;62093;37.614;15.072;2024-03-06T00:14:23;15.61;62.58
73780;SHT30;62093;37.614;15.072;2024-03-06T00:16:50;15.64;62.52
73780;SHT30;62093;37.614;15.072;2024-03-06T00:19:17;15.63;62.46
73780;SHT30;62093;37.614;15.072;2024-03-06T00:21:43;15.64;62.49
73780;SHT30;62093;37.614;15.072;2024-03-06T00:24:12;15.65;62.51
73780;SHT30;62093;37.614;15.072;2024-03-06T00:26:42;15.64;62.51
73780;SHT30;62093;37.614;15.072;2024-03-06T00:29:08;15.65;62.55
73780;SHT30;62093;37.614;15.072;2024-03-06T00:31:34;15.67;62.45
73780;SHT30;62093;37.614;15.072;2024-03-06T00:34:01;15.64;62.46
73780;SHT30;62093;37.614;15.072;2024-03-06T00:36:26;15.61;62.50
73780;SHT30;62093;37.614;15.072;2024-03-06T00:38:53;15.64;62.50
73780;SHT30;62093;37.614;15.072;2024-03-06T00:41:19;15.65;62.40
73780;SHT30;62093;37.614;15.072;2024-03-06T00:43:45;15.67;62.41
73780;SHT30;62093;37.614;15.072;2024-03-06T00:46:11;15.61;62.41
73780;SHT30;62093;37.614;15.072;2024-03-06T00:48:37;15.63;62.58
73780;SHT30;62093;37.614;15.072;2024-03-06T00:51:06;15.64;62.43
73780;SHT30;62093;37.614;15.072;2024-03-06T00:53:34;15.64;62.47
73780;SHT30;62093;37.614;15.072;2024-03-06T00:56:00;15.64;62.45
73780;SHT30;62093;37.614;15.072;2024-03-06T00:58:27;15.61;62.45
73780;SHT30;62093;37.614;15.072;2024-03-06T01:00:53;15.61;62.46
73780;SHT30;62093;37.614;15.072;2024-03-06T01:03:19;15.61;62.57
73780;SHT30;62093;37.614;15.072;2024-03-06T01:05:45;15.63;62.46
73780;SHT30;62093;37.614;15.072;2024-03-06T01:08:11;15.61;62.51
73780;SHT30;62093;37.614;15.072;2024-03-06T01:10:38;15.61;62.49
73780;SHT30;62093;37.614;15.072;2024-03-06T01:13:04;15.61;62.47
73780;SHT30;62093;37.614;15.072;2024-03-06T01:15:30;15.61;62.38
73780;SHT30;62093;37.614;15.072;2024-03-06T01:17:56;15.61;62.44
73780;SHT30;62093;37.614;15.072;2024-03-06T01:20:23;15.58;62.48
73780;SHT30;62093;37.614;15.072;2024-03-06T01:22:49;15.57;62.52
73780;SHT30;62093;37.614;15.072;2024-03-06T01:25:15;15.64;62.58
73780;SHT30;62093;37.614;15.072;2024-03-06T01:27:41;15.60;62.58
73780;SHT30;62093;37.614;15.072;2024-03-06T01:30:07;15.55;62.51
73780;SHT30;62093;37.614;15.072;2024-03-06T01:32:33;15.53;62.53
73780;SHT30;62093;37.614;15.072;2024-03-06T01:34:59;15.53;62.59
73780;SHT30;62093;37.614;15.072;2024-03-06T01:37:25;15.53;62.64
73780;SHT30;62093;37.614;15.072;2024-03-06T01:39:51;15.53;62.61
73780;SHT30;62093;37.614;15.072;2024-03-06T01:42:17;15.51;62.67
73780;SHT30;62093;37.614;15.072;2024-03-06T01:44:44;15.50;62.64
73780;SHT30;62093;37.614;15.072;2024-03-06T01:47:09;15.50;62.75
73780;SHT30;62093;37.614;15.072;2024-03-06T01:49:35;15.50;62.75
73780;SHT30;62093;37.614;15.072;2024-03-06T01:52:02;15.51;62.70
73780;SHT30;62093;37.614;15.072;2024-03-06T01:54:29;15.49;62.73
73780;SHT30;62093;37.614;15.072;2024-03-06T01:56:57;15.51;62.67
73780;SHT30;62093;37.614;15.072;2024-03-06T01:59:26;15.51;62.62
73780;SHT30;62093;37.614;15.072;2024-03-06T02:01:53;15.50;62.72
73780;SHT30;62093;37.614;15.072;2024-03-06T02:04:20;15.49;62.68
73780;SHT30;62093;37.614;15.072;2024-03-06T02:06:46;15.46;62.64
73780;SHT30;62093;37.614;15.072;2024-03-06T02:09:13;15.47;62.75
73780;SHT30;62093;37.614;15.072;2024-03-06T02:11:42;15.47;62.72
73780;SHT30;62093;37.614;15.072;2024-03-06T02:14:10;15.47;62.55
73780;SHT30;62093;37.614;15.072;2024-03-06T02:16:36;15.47;62.58
73780;SHT30;62093;37.614;15.072;2024-03-06T02:19:04;15.44;62.72
73780;SHT30;62093;37.614;15.072;2024-03-06T02:21:31;15.43;62.67
73780;SHT30;62093;37.614;15.072;2024-03-06T02:23:57;15.44;62.74
73780;SHT30;62093;37.614;15.072;2024-03-06T02:26:24;15.44;62.64
73780;SHT30;62093;37.614;15.072;2024-03-06T02:28:51;15.44;62.60
73780;SHT30;62093;37.614;15.072;2024-03-06T02:31:18;15.44;62.58
73780;SHT30;62093;37.614;15.072;2024-03-06T02:33:44;15.44;62.60
73780;SHT30;62093;37.614;15.072;2024-03-06T02:36:29;15.40;62.60
73780;SHT30;62093;37.614;15.072;2024-03-06T02:38:55;15.39;62.72
73780;SHT30;62093;37.614;15.072;2024-03-06T02:41:20;15.37;62.74
73780;SHT30;62093;37.614;15.072;2024-03-06T02:43:47;15.44;62.71
73780;SHT30;62093;37.614;15.072;2024-03-06T02:46:13;15.41;62.52
73780;SHT30;62093;37.614;15.072;2024-03-06T02:48:39;15.40;62.65
73780;SHT30;62093;37.614;15.072;2024-03-06T02:51:05;15.41;62.72
73780;SHT30;62093;37.614;15.072;2024-03-06T02:53:31;15.40;62.79
73780;SHT30;62093;37.614;15.072;2024-03-06T02:55:57;15.40;62.72
73780;SHT30;62093;37.614;15.072;2024-03-06T02:58:23;15.37;62.75
73780;SHT30;62093;37.614;15.072;2024-03-06T03:00:50;15.39;62.71
73780;SHT30;62093;37.614;15.072;2024-03-06T03:03:16;15.36;62.64
73780;SHT30;62093;37.614;15.072;2024-03-06T03:05:42;15.34;62.78
73780;SHT30;62093;37.614;15.072;2024-03-06T03:08:08;15.37;62.75
73780;SHT30;62093;37.614;15.072;2024-03-06T03:10:34;15.37;62.76
73780;SHT30;62093;37.614;15.072;2024-03-06T03:13:01;15.34;62.68
73780;SHT30;62093;37.614;15.072;2024-03-06T03:15:27;15.36;62.57
73780;SHT30;62093;37.614;15.072;2024-03-06T03:17:53;15.34;62.73
73780;SHT30;62093;37.614;15.072;2024-03-06T03:20:19;15.33;62.73
73780;SHT30;62093;37.614;15.072;2024-03-06T03:22:46;15.33;62.80
73780;SHT30;62093;37.614;15.072;2024-03-06T03:25:13;15.36;62.81
73780;SHT30;62093;37.614;15.072;2024-03-06T03:27:40;15.33;62.69
73780;SHT30;62093;37.614;15.072;2024-03-06T03:30:15;15.31;62.86
73780;SHT30;62093;37.614;15.072;2024-03-06T03:32:41;15.33;62.68
73780;SHT30;62093;37.614;15.072;2024-03-06T03:35:08;15.33;62.51
73780;SHT30;62093;37.614;15.072;2024-03-06T03:37:34;15.33;62.77
73780;SHT30;62093;37.614;15.072;2024-03-06T03:40:00;15.29;62.84
73780;SHT30;62093;37.614;15.072;2024-03-06T03:42:26;15.30;62.63
73780;SHT30;62093;37.614;15.072;2024-03-06T03:44:52;15.29;62.80
73780;SHT30;62093;37.614;15.072;2024-03-06T03:47:18;15.26;62.69
73780;SHT30;62093;37.614;15.072;2024-03-06T03:49:44;15.29;62.89
73780;SHT30;62093;37.614;15.072;2024-03-06T03:52:10;15.27;62.77
73780;SHT30;62093;37.614;15.072;2024-03-06T03:54:37;15.29;62.71
73780;SHT30;62093;37.614;15.072;2024-03-06T03:57:03;15.26;62.86
73780;SHT30;62093;37.614;15.072;2024-03-06T03:59:29;15.24;62.68
73780;SHT30;62093;37.614;15.072;2024-03-06T04:01:56;15.24;62.62
73780;SHT30;62093;37.614;15.072;2024-03-06T04:04:23;15.24;62.82
73780;SHT30;62093;37.614;15.072;2024-03-06T04:06:49;15.46;62.57
73780;SHT30;62093;37.614;15.072;2024-03-06T04:09:15;15.63;62.04
73780;SHT30;62093;37.614;15.072;2024-03-06T04:11:41;15.70;61.75
73780;SHT30;62093;37.614;15.072;2024-03-06T04:14:07;15.78;61.47
73780;SHT30;62093;37.614;15.072;2024-03-06T04:16:34;15.78;61.50
73780;SHT30;62093;37.614;15.072;2024-03-06T04:19:00;15.84;61.41
73780;SHT30;62093;37.614;15.072;2024-03-06T04:21:27;15.92;61.18
73780;SHT30;62093;37.614;15.072;2024-03-06T04:23:53;15.90;61.19
73780;SHT30;62093;37.614;15.072;2024-03-06T04:26:19;15.95;61.12
73780;SHT30;62093;37.614;15.072;2024-03-06T04:28:46;15.97;61.13
73780;SHT30;62093;37.614;15.072;2024-03-06T04:31:11;15.94;61.12
73780;SHT30;62093;37.614;15.072;2024-03-06T04:33:37;15.92;61.21
73780;SHT30;62093;37.614;15.072;2024-03-06T04:36:04;15.90;61.25
73780;SHT30;62093;37.614;15.072;2024-03-06T04:38:34;15.90;61.37
73780;SHT30;62093;37.614;15.072;2024-03-06T04:41:00;15.90;61.30
73780;SHT30;62093;37.614;15.072;2024-03-06T04:43:26;15.90;61.26
73780;SHT30;62093;37.614;15.072;2024-03-06T04:45:52;15.87;61.20
73780;SHT30;62093;37.614;15.072;2024-03-06T04:48:18;15.85;61.34
73780;SHT30;62093;37.614;15.072;2024-03-06T04:50:44;15.87;61.28
73780;SHT30;62093;37.614;15.072;2024-03-06T04:53:10;15.81;61.31
73780;SHT30;62093;37.614;15.072;2024-03-06T04:55:37;15.87;61.36
73780;SHT30;62093;37.614;15.072;2024-03-06T04:58:04;15.88;61.35
73780;SHT30;62093;37.614;15.072;2024-03-06T05:00:30;15.90;61.20
73780;SHT30;62093;37.614;15.072;2024-03-06T05:02:56;15.85;61.34
73780;SHT30;62093;37.614;15.072;2024-03-06T05:05:22;15.81;61.36
73780;SHT30;62093;37.614;15.072;2024-03-06T05:07:48;15.80;61.46
73780;SHT30;62093;37.614;15.072;2024-03-06T05:10:15;15.78;61.34
73780;SHT30;62093;37.614;15.072;2024-03-06T05:12:41;15.64;61.48
73780;SHT30;62093;37.614;15.072;2024-03-06T05:15:08;15.61;61.97
73780;SHT30;62093;37.614;15.072;2024-03-06T05:17:34;15.58;61.91
73780;SHT30;62093;37.614;15.072;2024-03-06T05:20:01;15.54;62.03
73780;SHT30;62093;37.614;15.072;2024-03-06T05:22:27;15.50;62.07
73780;SHT30;62093;37.614;15.072;2024-03-06T05:24:53;15.47;62.17
73780;SHT30;62093;37.614;15.072;2024-03-06T05:27:21;15.46;62.31
73780;SHT30;62093;37.614;15.072;2024-03-06T05:29:47;15.44;62.25
73780;SHT30;62093;37.614;15.072;2024-03-06T05:32:13;15.43;62.49
73780;SHT30;62093;37.614;15.072;2024-03-06T05:34:39;15.49;62.22
73780;SHT30;62093;37.614;15.072;2024-03-06T05:37:05;15.46;62.33
73780;SHT30;62093;37.614;15.072;2024-03-06T05:39:31;15.46;62.30
73780;SHT30;62093;37.614;15.072;2024-03-06T05:42:01;15.43;62.33
73780;SHT30;62093;37.614;15.072;2024-03-06T05:44:31;15.44;62.38
73780;SHT30;62093;37.614;15.072;2024-03-06T05:46:58;15.43;62.41
73780;SHT30;62093;37.614;15.072;2024-03-06T05:49:24;15.43;62.43
73780;SHT30;62093;37.614;15.072;2024-03-06T05:51:51;15.43;62.40
73780;SHT30;62093;37.614;15.072;2024-03-06T05:54:17;15.41;62.44
73780;SHT30;62093;37.614;15.072;2024-03-06T05:56:43;15.46;62.29
73780;SHT30;62093;37.614;15.072;2024-03-06T05:59:09;15.44;62.39
73780;SHT30;62093;37.614;15.072;2024-03-06T06:01:35;15.46;62.37
73780;SHT30;62093;37.614;15.072;2024-03-06T06:04:02;15.44;62.51
73780;SHT30;62093;37.614;15.072;2024-03-06T06:06:28;15.46;62.59
73780;SHT30;62093;37.614;15.072;2024-03-06T06:08:54;15.46;62.44
73780;SHT30;62093;37.614;15.072;2024-03-06T06:11:20;15.49;62.51
73780;SHT30;62093;37.614;15.072;2024-03-06T06:13:46;15.46;62.41
73780;SHT30;62093;37.614;15.072;2024-03-06T06:16:18;15.47;62.41
73780;SHT30;62093;37.614;15.072;2024-03-06T06:18:55;15.49;62.49
73780;SHT30;62093;37.614;15.072;2024-03-06T06:21:21;15.50;62.58
73780;SHT30;62093;37.614;15.072;2024-03-06T06:23:47;15.46;62.34
73780;SHT30;62093;37.614;15.072;2024-03-06T06:26:14;15.49;62.44
73780;SHT30;62093;37.614;15.072;2024-03-06T06:28:41;15.49;62.45
73780;SHT30;62093;37.614;15.072;2024-03-06T06:31:07;15.47;62.45
73780;SHT30;62093;37.614;15.072;2024-03-06T06:33:33;15.49;62.40
73780;SHT30;62093;37.614;15.072;2024-03-06T06:36:00;15.50;62.50
73780;SHT30;62093;37.614;15.072;2024-03-06T06:38:26;15.49;62.56
73780;SHT30;62093;37.614;15.072;2024-03-06T06:40:52;15.53;62.41
73780;SHT30;62093;37.614;15.072;2024-03-06T06:43:18;15.51;62.35
73780;SHT30;62093;37.614;15.072;2024-03-06T06:45:44;15.51;62.42
73780;SHT30;62093;37.614;15.072;2024-03-06T06:48:10;15.51;62.50
73780;SHT30;62093;37.614;15.072;2024-03-06T06:50:36;15.53;62.35
73780;SHT30;62093;37.614;15.072;2024-03-06T06:53:02;15.49;62.46
73780;SHT30;62093;37.614;15.072;2024-03-06T06:55:28;15.54;62.31
73780;SHT30;62093;37.614;15.072;2024-03-06T06:57:55;15.54;62.43
73780;SHT30;62093;37.614;15.072;2024-03-06T07:00:21;15.54;62.44
73780;SHT30;62093;37.614;15.072;2024-03-06T07:02:48;15.55;62.23
73780;SHT30;62093;37.614;15.072;2024-03-06T07:05:15;15.54;62.36
73780;SHT30;62093;37.614;15.072;2024-03-06T07:07:41;15.54;62.40
73780;SHT30;62093;37.614;15.072;2024-03-06T07:10:07;15.54;62.37
73780;SHT30;62093;37.614;15.072;2024-03-06T07:12:35;15.55;62.43
73780;SHT30;62093;37.614;15.072;2024-03-06T07:15:01;15.54;62.31
73780;SHT30;62093;37.614;15.072;2024-03-06T07:17:28;15.60;62.27
73780;SHT30;62093;37.614;15.072;2024-03-06T07:19:54;15.58;62.26
73780;SHT30;62093;37.614;15.072;2024-03-06T07:22:21;15.55;62.29
73780;SHT30;62093;37.614;15.072;2024-03-06T07:24:48;15.54;62.38
73780;SHT30;62093;37.614;15.072;2024-03-06T07:27:14;15.60;62.28
73780;SHT30;62093;37.614;15.072;2024-03-06T07:29:40;15.60;62.26
73780;SHT30;62093;37.614;15.072;2024-03-06T07:32:06;15.61;62.29
73780;SHT30;62093;37.614;15.072;2024-03-06T07:34:32;15.60;62.23
73780;SHT30;62093;37.614;15.072;2024-03-06T07:36:59;15.57;62.12
73780;SHT30;62093;37.614;15.072;2024-03-06T07:39:25;15.61;62.22
73780;SHT30;62093;37.614;15.072;2024-03-06T07:41:52;15.57;62.25
73780;SHT30;62093;37.614;15.072;2024-03-06T07:44:18;15.60;62.10
73780;SHT30;62093;37.614;15.072;2024-03-06T07:46:45;15.61;62.15
73780;SHT30;62093;37.614;15.072;2024-03-06T07:49:11;15.60;62.17
73780;SHT30;62093;37.614;15.072;2024-03-06T07:51:39;15.61;62.10
73780;SHT30;62093;37.614;15.072;2024-03-06T07:54:06;15.60;62.13
73780;SHT30;62093;37.614;15.072;2024-03-06T07:56:32;15.63;62.16
73780;SHT30;62093;37.614;15.072;2024-03-06T07:59:00;15.64;62.08
73780;SHT30;62093;37.614;15.072;2024-03-06T08:01:26;15.64;62.00
73780;SHT30;62093;37.614;15.072;2024-03-06T08:03:54;15.68;62.11
73780;SHT30;62093;37.614;15.072;2024-03-06T08:06:21;15.67;61.90
73780;SHT30;62093;37.614;15.072;2024-03-06T08:08:47;15.68;61.92
73780;SHT30;62093;37.614;15.072;2024-03-06T08:11:15;15.70;61.87
73780;SHT30;62093;37.614;15.072;2024-03-06T08:13:41;15.70;61.94
73780;SHT30;62093;37.614;15.072;2024-03-06T08:16:08;15.71;61.88
73780;SHT30;62093;37.614;15.072;2024-03-06T08:18:34;15.71;61.84
73780;SHT30;62093;37.614;15.072;2024-03-06T08:21:01;15.71;61.98
73780;SHT30;62093;37.614;15.072;2024-03-06T08:23:29;15.75;61.86
73780;SHT30;62093;37.614;15.072;2024-03-06T08:25:56;15.74;61.89
73780;SHT30;62093;37.614;15.072;2024-03-06T08:28:22;15.71;61.82
73780;SHT30;62093;37.614;15.072;2024-03-06T08:30:48;15.77;61.75
73780;SHT30;62093;37.614;15.072;2024-03-06T08:33:14;15.78;61.75
73780;SHT30;62093;37.614;15.072;2024-03-06T08:35:41;15.82;61.66
73780;SHT30;62093;37.614;15.072;2024-03-06T08:38:07;15.81;61.67
73780;SHT30;62093;37.614;15.072;2024-03-06T08:40:34;15.80;61.62
73780;SHT30;62093;37.614;15.072;2024-03-06T08:43:00;15.78;61.69
73780;SHT30;62093;37.614;15.072;2024-03-06T08:45:26;15.81;61.62
73780;SHT30;62093;37.614;15.072;2024-03-06T08:47:52;15.82;61.47
73780;SHT30;62093;37.614;15.072;2024-03-06T08:50:20;15.84;61.56
73780;SHT30;62093;37.614;15.072;2024-03-06T08:52:46;15.87;61.54
73780;SHT30;62093;37.614;15.072;2024-03-06T08:55:12;15.85;61.52
73780;SHT30;62093;37.614;15.072;2024-03-06T08:57:39;15.85;61.44
73780;SHT30;62093;37.614;15.072;2024-03-06T09:00:06;15.88;61.45
73780;SHT30;62093;37.614;15.072;2024-03-06T09:02:39;15.88;61.49
73780;SHT30;62093;37.614;15.072;2024-03-06T09:05:08;15.87;61.42
73780;SHT30;62093;37.614;15.072;2024-03-06T09:07:36;15.87;61.52
73780;SHT30;62093;37.614;15.072;2024-03-06T09:10:07;15.87;61.43
73780;SHT30;62093;37.614;15.072;2024-03-06T09:12:33;15.87;61.38
73780;SHT30;62093;37.614;15.072;2024-03-06T09:15:01;15.85;61.36
73780;SHT30;62093;37.614;15.072;2024-03-06T09:17:27;15.88;61.50
73780;SHT30;62093;37.614;15.072;2024-03-06T09:19:53;15.87;61.38
73780;SHT30;62093;37.614;15.072;2024-03-06T09:22:20;15.88;61.35
73780;SHT30;62093;37.614;15.072;2024-03-06T09:24:46;15.85;61.33
73780;SHT30;62093;37.614;15.072;2024-03-06T09:27:12;15.88;61.31
73780;SHT30;62093;37.614;15.072;2024-03-06T09:29:40;15.87;61.31
73780;SHT30;62093;37.614;15.072;2024-03-06T09:32:06;15.88;61.27
73780;SHT30;62093;37.614;15.072;2024-03-06T09:34:32;15.91;61.32
73780;SHT30;62093;37.614;15.072;2024-03-06T09:36:58;15.91;61.17
73780;SHT30;62093;37.614;15.072;2024-03-06T09:39:24;15.91;61.25
73780;SHT30;62093;37.614;15.072;2024-03-06T09:41:51;15.92;61.16
73780;SHT30;62093;37.614;15.072;2024-03-06T09:44:18;15.90;61.15
73780;SHT30;62093;37.614;15.072;2024-03-06T09:46:46;15.92;61.26
73780;SHT30;62093;37.614;15.072;2024-03-06T09:49:17;15.91;61.17
73780;SHT30;62093;37.614;15.072;2024-03-06T09:51:47;15.91;61.09
73780;SHT30;62093;37.614;15.072;2024-03-06T09:54:19;15.94;61.12
73780;SHT30;62093;37.614;15.072;2024-03-06T09:56:46;15.95;60.97
73780;SHT30;62093;37.614;15.072;2024-03-06T09:59:13;16.00;61.16
73780;SHT30;62093;37.614;15.072;2024-03-06T10:02:00;15.97;60.98
73780;SHT30;62093;37.614;15.072;2024-03-06T10:04:28;15.97;60.98
73780;SHT30;62093;37.614;15.072;2024-03-06T10:06:56;15.98;61.09
73780;SHT30;62093;37.614;15.072;2024-03-06T10:09:24;15.98;61.16
73780;SHT30;62093;37.614;15.072;2024-03-06T10:11:50;16.01;61.07
73780;SHT30;62093;37.614;15.072;2024-03-06T10:14:19;16.00;60.88
73780;SHT30;62093;37.614;15.072;2024-03-06T10:16:55;16.00;60.85
73780;SHT30;62093;37.614;15.072;2024-03-06T10:19:26;16.00;60.97
73780;SHT30;62093;37.614;15.072;2024-03-06T10:21:56;16.01;60.71
73780;SHT30;62093;37.614;15.072;2024-03-06T10:24:25;16.04;60.77
73780;SHT30;62093;37.614;15.072;2024-03-06T10:26:52;16.02;60.86
73780;SHT30;62093;37.614;15.072;2024-03-06T10:29:21;16.04;60.93
73780;SHT30;62093;37.614;15.072;2024-03-06T10:31:52;16.02;60.88
73780;SHT30;62093;37.614;15.072;2024-03-06T10:34:18;16.05;60.78
73780;SHT30;62093;37.614;15.072;2024-03-06T10:36:46;16.06;60.65
73780;SHT30;62093;37.614;15.072;2024-03-06T10:39:18;16.04;60.72
73780;SHT30;62093;37.614;15.072;2024-03-06T10:41:46;16.05;60.54
73780;SHT30;62093;37.614;15.072;2024-03-06T10:44:14;16.08;60.62
73780;SHT30;62093;37.614;15.072;2024-03-06T10:46:44;16.08;60.23
73780;SHT30;62093;37.614;15.072;2024-03-06T10:49:13;16.11;60.56
73780;SHT30;62093;37.614;15.072;2024-03-06T10:51:40;16.09;60.46
73780;SHT30;62093;37.614;15.072;2024-03-06T10:54:11;16.09;60.50
73780;SHT30;62093;37.614;15.072;2024-03-06T10:56:40;16.08;60.53
73780;SHT30;62093;37.614;15.072;2024-03-06T10:59:11;16.11;60.51
73780;SHT30;62093;37.614;15.072;2024-03-06T11:01:41;16.12;60.38
73780;SHT30;62093;37.614;15.072;2024-03-06T11:04:11;16.12;60.34
73780;SHT30;62093;37.614;15.072;2024-03-06T11:06:37;16.12;60.44
73780;SHT30;62093;37.614;15.072;2024-03-06T11:09:04;16.13;60.34
73780;SHT30;62093;37.614;15.072;2024-03-06T11:11:30;16.13;60.27
73780;SHT30;62093;37.614;15.072;2024-03-06T11:14:03;16.13;60.19
73780;SHT30;62093;37.614;15.072;2024-03-06T11:16:30;16.16;60.36
73780;SHT30;62093;37.614;15.072;2024-03-06T11:19:08;16.16;60.26
73780;SHT30;62093;37.614;15.072;2024-03-06T11:21:35;16.15;60.22
73780;SHT30;62093;37.614;15.072;2024-03-06T11:24:18;16.18;60.30
73780;SHT30;62093;37.614;15.072;2024-03-06T11:26:49;16.18;60.13
73780;SHT30;62093;37.614;15.072;2024-03-06T11:29:19;16.18;60.19
73780;SHT30;62093;37.614;15.072;2024-03-06T11:32:07;16.18;60.29
73780;SHT30;62093;37.614;15.072;2024-03-06T11:34:34;16.18;60.35
73780;SHT30;62093;37.614;15.072;2024-03-06T11:37:05;16.19;60.23
73780;SHT30;62093;37.614;15.072;2024-03-06T11:39:34;16.18;60.24
73780;SHT30;62093;37.614;15.072;2024-03-06T11:42:02;16.19;59.83
73780;SHT30;62093;37.614;15.072;2024-03-06T11:44:28;16.22;60.13
73780;SHT30;62093;37.614;15.072;2024-03-06T11:46:59;16.19;60.16
73780;SHT30;62093;37.614;15.072;2024-03-06T11:49:30;16.21;60.01
73780;SHT30;62093;37.614;15.072;2024-03-06T11:52:01;16.22;60.05
73780;SHT30;62093;37.614;15.072;2024-03-06T11:54:29;16.22;60.19
73780;SHT30;62093;37.614;15.072;2024-03-06T11:56:57;16.26;60.08
73780;SHT30;62093;37.614;15.072;2024-03-06T11:59:27;16.26;60.08
73780;SHT30;62093;37.614;15.072;2024-03-06T12:01:54;16.25;59.96
73780;SHT30;62093;37.614;15.072;2024-03-06T12:04:21;16.28;59.84
73780;SHT30;62093;37.614;15.072;2024-03-06T12:06:48;16.25;60.08
73780;SHT30;62093;37.614;15.072;2024-03-06T12:09:14;16.28;60.05
73780;SHT30;62093;37.614;15.072;2024-03-06T12:11:41;16.29;59.79
73780;SHT30;62093;37.614;15.072;2024-03-06T12:14:14;16.28;59.54
73780;SHT30;62093;37.614;15.072;2024-03-06T12:16:43;16.26;59.96
73780;SHT30;62093;37.614;15.072;2024-03-06T12:19:09;16.28;59.88
73780;SHT30;62093;37.614;15.072;2024-03-06T12:21:35;16.29;59.82
73780;SHT30;62093;37.614;15.072;2024-03-06T12:24:05;16.29;59.93
73780;SHT30;62093;37.614;15.072;2024-03-06T12:26:31;16.29;59.94
73780;SHT30;62093;37.614;15.072;2024-03-06T12:29:05;16.29;59.71
73780;SHT30;62093;37.614;15.072;2024-03-06T12:31:32;16.30;59.92
73780;SHT30;62093;37.614;15.072;2024-03-06T12:33:59;16.32;59.64
73780;SHT30;62093;37.614;15.072;2024-03-06T12:36:27;16.30;59.70
73780;SHT30;62093;37.614;15.072;2024-03-06T12:38:56;16.33;59.84
73780;SHT30;62093;37.614;15.072;2024-03-06T12:41:22;16.30;59.84
73780;SHT30;62093;37.614;15.072;2024-03-06T12:43:48;16.33;59.70
73780;SHT30;62093;37.614;15.072;2024-03-06T12:46:14;16.32;59.65
73780;SHT30;62093;37.614;15.072;2024-03-06T12:48:40;16.35;59.71
73780;SHT30;62093;37.614;15.072;2024-03-06T12:51:06;16.35;59.62
73780;SHT30;62093;37.614;15.072;2024-03-06T12:53:32;16.38;59.88
73780;SHT30;62093;37.614;15.072;2024-03-06T12:56:01;16.35;59.85
73780;SHT30;62093;37.614;15.072;2024-03-06T12:58:27;16.32;59.67
73780;SHT30;62093;37.614;15.072;2024-03-06T13:00:53;16.35;59.65
73780;SHT30;62093;37.614;15.072;2024-03-06T13:03:20;16.32;59.72
73780;SHT30;62093;37.614;15.072;2024-03-06T13:05:46;16.36;59.65
73780;SHT30;62093;37.614;15.072;2024-03-06T13:08:12;16.33;59.73
73780;SHT30;62093;37.614;15.072;2024-03-06T13:10:40;16.33;59.71
73780;SHT30;62093;37.614;15.072;2024-03-06T13:13:06;16.35;59.78
73780;SHT30;62093;37.614;15.072;2024-03-06T13:15:35;16.33;59.66
73780;SHT30;62093;37.614;15.072;2024-03-06T13:18:03;16.32;59.87
73780;SHT30;62093;37.614;15.072;2024-03-06T13:20:30;16.33;59.92
73780;SHT30;62093;37.614;15.072;2024-03-06T13:22:56;16.33;59.69
73780;SHT30;62093;37.614;15.072;2024-03-06T13:25:22;16.30;59.84
73780;SHT30;62093;37.614;15.072;2024-03-06T13:27:48;16.32;59.94
73780;SHT30;62093;37.614;15.072;2024-03-06T13:30:15;16.30;59.90
73780;SHT30;62093;37.614;15.072;2024-03-06T13:32:41;16.32;59.76
73780;SHT30;62093;37.614;15.072;2024-03-06T13:35:12;16.32;59.89
73780;SHT30;62093;37.614;15.072;2024-03-06T13:37:42;16.30;59.93
73780;SHT30;62093;37.614;15.072;2024-03-06T13:40:08;16.35;59.66
73780;SHT30;62093;37.614;15.072;2024-03-06T13:42:37;16.33;59.77
73780;SHT30;62093;37.614;15.072;2024-03-06T13:45:04;16.35;59.82
73780;SHT30;62093;37.614;15.072;2024-03-06T13:47:30;16.33;59.73
73780;SHT30;62093;37.614;15.072;2024-03-06T13:49:56;16.33;59.68
73780;SHT30;62093;37.614;15.072;2024-03-06T13:52:22;16.35;59.55
73780;SHT30;62093;37.614;15.072;2024-03-06T13:54:49;16.32;59.70
73780;SHT30;62093;37.614;15.072;2024-03-06T13:57:15;16.33;59.79
73780;SHT30;62093;37.614;15.072;2024-03-06T13:59:42;16.33;59.73
73780;SHT30;62093;37.614;15.072;2024-03-06T14:02:08;16.35;59.70
73780;SHT30;62093;37.614;15.072;2024-03-06T14:04:35;16.33;59.74
73780;SHT30;62093;37.614;15.072;2024-03-06T14:07:01;16.30;59.66
73780;SHT30;62093;37.614;15.072;2024-03-06T14:09:27;16.35;59.68
73780;SHT30;62093;37.614;15.072;2024-03-06T14:11:54;16.35;59.60
73780;SHT30;62093;37.614;15.072;2024-03-06T14:14:20;16.36;59.48
73780;SHT30;62093;37.614;15.072;2024-03-06T14:16:46;16.30;59.55
73780;SHT30;62093;37.614;15.072;2024-03-06T14:19:12;16.36;59.90
73780;SHT30;62093;37.614;15.072;2024-03-06T14:21:39;16.36;59.70
73780;SHT30;62093;37.614;15.072;2024-03-06T14:24:05;16.35;59.72
73780;SHT30;62093;37.614;15.072;2024-03-06T14:26:32;16.35;59.62
73780;SHT30;62093;37.614;15.072;2024-03-06T14:28:59;16.36;59.85
73780;SHT30;62093;37.614;15.072;2024-03-06T14:31:26;16.35;59.88
73780;SHT30;62093;37.614;15.072;2024-03-06T14:33:52;16.35;59.84
73780;SHT30;62093;37.614;15.072;2024-03-06T14:36:18;16.36;59.70
73780;SHT30;62093;37.614;15.072;2024-03-06T14:38:44;16.36;59.79
73780;SHT30;62093;37.614;15.072;2024-03-06T14:41:10;16.38;59.46
73780;SHT30;62093;37.614;15.072;2024-03-06T14:43:36;16.38;59.65
73780;SHT30;62093;37.614;15.072;2024-03-06T14:46:07;16.36;59.75
73780;SHT30;62093;37.614;15.072;2024-03-06T14:48:34;16.38;59.75
73780;SHT30;62093;37.614;15.072;2024-03-06T14:51:03;16.38;59.34
73780;SHT30;62093;37.614;15.072;2024-03-06T14:53:29;16.39;59.55
73780;SHT30;62093;37.614;15.072;2024-03-06T14:55:58;16.38;59.64
73780;SHT30;62093;37.614;15.072;2024-03-06T14:58:24;16.38;59.55
73780;SHT30;62093;37.614;15.072;2024-03-06T15:00:50;16.38;59.77
73780;SHT30;62093;37.614;15.072;2024-03-06T15:03:17;16.36;59.57
73780;SHT30;62093;37.614;15.072;2024-03-06T15:05:46;16.36;59.64
73780;SHT30;62093;37.614;15.072;2024-03-06T15:08:12;16.36;59.80
73780;SHT30;62093;37.614;15.072;2024-03-06T15:10:38;16.35;59.95
73780;SHT30;62093;37.614;15.072;2024-03-06T15:13:04;16.36;59.94
73780;SHT30;62093;37.614;15.072;2024-03-06T15:15:30;16.36;60.01